Time;durP1;ratioP1;P1;durP2;ratioP2;P2;SDS_P1;SDS_P2;PMS_P1;PMS_P2;Temp;Humidity;BMP_temperature;BMP_pressure;BME280_temperature;BME280_humidity;BME280_pressure;Samples;Min_cycle;Max_cycle;Signal;HPM_P1;HPM_P2
2023/12/08 00:03:08;;;;;;;84.2;45.3;;;;;;;-0.13;85.61;;;;;
2023/12/08 00:14:08;;;;;;;84.2;45.3;;;;;;;-0.36;86.49;;;;;
2023/12/08 00:24:08;;;;;;;84.2;45.3;;;;;;;-0.17;86.5;;;;;
2023/12/08 00:35:08;;;;;;;82.7;41.4;;;;;;;-0.19;86.05;;;;;
2023/12/08 00:46:09;;;;;;;82.7;41.4;;;;;;;-0.32;85.47;;;;;
2023/12/08 00:56:08;;;;;;;82.7;41.4;;;;;;;-0.34;85.71;;;;;
2023/12/08 01:07:08;;;;;;;77.9;40.5;;;;;;;-0.23;86.16;;;;;
2023/12/08 01:17:08;;;;;;;77.9;40.5;;;;;;;-0.5;86.14;;;;;
2023/12/08 01:28:08;;;;;;;77.9;40.5;;;;;;;-0.33;86.69;;;;;
2023/12/08 01:39:08;;;;;;;88.1;42.7;;;;;;;-0.21;85.94;;;;;
2023/12/08 01:49:08;;;;;;;88.1;42.7;;;;;;;-0.48;86.24;;;;;
2023/12/08 02:00:08;;;;;;;88.1;42.7;;;;;;;-0.27;86.48;;;;;
2023/12/08 02:10:08;;;;;;;80.2;41.6;;;;;;;-0.38;85.7;;;;;
2023/12/08 02:20:09;;;;;;;80.2;41.6;;;;;;;-0.6;86.82;;;;;
2023/12/08 02:31:08;;;;;;;88.8;44.1;;;;;;;-0.87;87.81;;;;;
2023/12/08 02:42:08;;;;;;;88.8;44.1;;;;;;;-0.75;87.9;;;;;
2023/12/08 02:52:08;;;;;;;88.8;44.1;;;;;;;-0.75;88.34;;;;;
2023/12/08 03:03:08;;;;;;;99.2;45.2;;;;;;;-0.78;88.47;;;;;
2023/12/08 03:14:08;;;;;;;99.2;45.2;;;;;;;-0.55;88.13;;;;;
2023/12/08 03:24:08;;;;;;;99.2;45.2;;;;;;;-0.64;87.68;;;;;
2023/12/08 03:35:08;;;;;;;80.3;41.7;;;;;;;-0.94;87.69;;;;;
2023/12/08 03:45:08;;;;;;;80.3;41.7;;;;;;;-0.94;87.34;;;;;
2023/12/08 03:56:08;;;;;;;80.3;41.7;;;;;;;-1.23;87.99;;;;;
2023/12/08 04:06:08;;;;;;;77.3;37.5;;;;;;;-1.46;88.1;;;;;
2023/12/08 04:17:08;;;;;;;77.3;37.5;;;;;;;-1.58;88.32;;;;;
2023/12/08 04:28:08;;;;;;;77.3;37.5;;;;;;;-1.78;88.12;;;;;
2023/12/08 04:39:08;;;;;;;75;37;;;;;;;-2.1;88.35;;;;;
2023/12/08 04:50:08;;;;;;;75;37;;;;;;;-2.42;89.28;;;;;
2023/12/08 05:01:08;;;;;;;82.9;39.8;;;;;;;-2.6;89.37;;;;;
2023/12/08 05:12:08;;;;;;;82.9;39.8;;;;;;;-2.81;90.21;;;;;
2023/12/08 05:22:08;;;;;;;82.9;39.8;;;;;;;-2.99;90.56;;;;;
2023/12/08 05:33:08;;;;;;;82.1;43.9;;;;;;;-3.15;90.93;;;;;
2023/12/08 05:43:08;;;;;;;82.1;43.9;;;;;;;-3.27;90.81;;;;;
2023/12/08 05:54:08;;;;;;;82.1;43.9;;;;;;;-3.23;90.75;;;;;
2023/12/08 06:05:08;;;;;;;60.3;28.3;;;;;;;-3.29;90.2;;;;;
2023/12/08 06:16:08;;;;;;;60.3;28.3;;;;;;;-3.34;89.7;;;;;
2023/12/08 06:27:08;;;;;;;60.3;28.3;;;;;;;-3.65;88.8;;;;;
2023/12/08 06:38:10;;;;;;;45.6;25.6;;;;;;;-3.87;88.97;;;;;
2023/12/08 06:49:08;;;;;;;45.6;25.6;;;;;;;-3.97;89.07;;;;;
2023/12/08 07:00:10;;;;;;;41.1;24.2;;;;;;;-4.13;89.17;;;;;
2023/12/08 07:10:08;;;;;;;41.1;24.2;;;;;;;-3.96;89.3;;;;;
2023/12/08 07:20:09;;;;;;;41.1;24.2;;;;;;;-3.85;89.26;;;;;
2023/12/08 07:31:08;;;;;;;47.8;26.7;;;;;;;-3.71;89.07;;;;;
2023/12/08 07:41:08;;;;;;;47.8;26.7;;;;;;;-3.84;87.91;;;;;
2023/12/08 07:52:08;;;;;;;47.8;26.7;;;;;;;-3.52;88.41;;;;;
2023/12/08 08:02:08;;;;;;;50.5;26.3;;;;;;;-3.15;88.77;;;;;
2023/12/08 08:13:08;;;;;;;50.5;26.3;;;;;;;-2.69;88.47;;;;;
2023/12/08 08:24:08;;;;;;;50.5;26.3;;;;;;;-2.6;86.71;;;;;
2023/12/08 08:35:08;;;;;;;52.7;28.8;;;;;;;-2.25;87.26;;;;;
2023/12/08 08:46:08;;;;;;;52.7;28.8;;;;;;;-1.84;85.53;;;;;
2023/12/08 08:56:08;;;;;;;52.7;28.8;;;;;;;-1.36;86.32;;;;;
2023/12/08 09:06:08;;;;;;;49.8;26.2;;;;;;;-1.15;83.8;;;;;
2023/12/08 09:17:08;;;;;;;49.8;26.2;;;;;;;-0.65;83.37;;;;;
2023/12/08 09:27:08;;;;;;;49.8;26.2;;;;;;;-0.4;83.11;;;;;
2023/12/08 09:38:08;;;;;;;43.2;24.1;;;;;;;-0.09;82.06;;;;;
2023/12/08 09:49:08;;;;;;;43.2;24.1;;;;;;;-0.06;81.39;;;;;
2023/12/08 09:59:08;;;;;;;43.2;24.1;;;;;;;-0.04;81.39;;;;;
2023/12/08 10:09:08;;;;;;;33.9;22.3;;;;;;;0.26;80.7;;;;;
2023/12/08 10:20:09;;;;;;;33.9;22.3;;;;;;;0.21;81.1;;;;;
2023/12/08 10:31:08;;;;;;;31.9;19.5;;;;;;;0.96;78.91;;;;;
2023/12/08 10:41:08;;;;;;;31.9;19.5;;;;;;;1.08;77.46;;;;;
2023/12/08 10:51:13;;;;;;;31.9;19.5;;;;;;;0.91;77.19;;;;;
2023/12/08 11:02:08;;;;;;;29.6;16.9;;;;;;;1.45;75.17;;;;;
2023/12/08 11:12:08;;;;;;;29.6;16.9;;;;;;;1.71;75.13;;;;;
2023/12/08 11:22:08;;;;;;;29.6;16.9;;;;;;;1.76;74.1;;;;;
2023/12/08 11:33:08;;;;;;;30.7;18.7;;;;;;;2.05;75.52;;;;;
2023/12/08 11:43:08;;;;;;;30.7;18.7;;;;;;;2.25;74.92;;;;;
2023/12/08 11:54:08;;;;;;;30.7;18.7;;;;;;;1.95;74.8;;;;;
2023/12/08 12:05:08;;;;;;;36.1;21.8;;;;;;;2.11;74.59;;;;;
2023/12/08 12:16:08;;;;;;;36.1;21.8;;;;;;;1.77;75.6;;;;;
2023/12/08 12:26:13;;;;;;;36.1;21.8;;;;;;;1.77;76.85;;;;;
2023/12/08 12:36:08;;;;;;;27.9;17.9;;;;;;;1.75;75.67;;;;;
2023/12/08 12:46:08;;;;;;;27.9;17.9;;;;;;;1.49;76.75;;;;;
2023/12/08 12:56:08;;;;;;;27.9;17.9;;;;;;;1.26;79.07;;;;;
2023/12/08 13:06:08;;;;;;;34.2;19.5;;;;;;;0.71;79.22;;;;;
2023/12/08 13:17:09;;;;;;;34.2;19.5;;;;;;;0.91;81.59;;;;;
2023/12/08 13:27:08;;;;;;;34.2;19.5;;;;;;;0.7;80.34;;;;;
2023/12/08 13:38:08;;;;;;;39.6;21.3;;;;;;;0.68;81.06;;;;;
2023/12/08 13:48:08;;;;;;;39.6;21.3;;;;;;;0.47;80.68;;;;;
2023/12/08 13:59:08;;;;;;;33.1;19.1;;;;;;;-0.02;81.97;;;;;
2023/12/08 14:10:08;;;;;;;33.1;19.1;;;;;;;-0.15;83.08;;;;;
2023/12/08 14:20:08;;;;;;;33.1;19.1;;;;;;;-0.26;83.81;;;;;
2023/12/08 14:31:08;;;;;;;36;20.1;;;;;;;-0.58;84.79;;;;;
2023/12/08 14:41:08;;;;;;;36;20.1;;;;;;;-0.73;84.77;;;;;
2023/12/08 14:51:08;;;;;;;36;20.1;;;;;;;-0.74;85.05;;;;;
2023/12/08 15:02:08;;;;;;;33.9;17.3;;;;;;;-0.96;85.95;;;;;
2023/12/08 15:13:08;;;;;;;33.9;17.3;;;;;;;-1.15;86.55;;;;;
2023/12/08 15:24:08;;;;;;;33.9;17.3;;;;;;;-0.99;85.58;;;;;
2023/12/08 15:35:08;;;;;;;24.7;14.1;;;;;;;-1.12;85.81;;;;;
2023/12/08 15:46:09;;;;;;;24.7;14.1;;;;;;;-1.04;86.35;;;;;
2023/12/08 15:56:08;;;;;;;24.7;14.1;;;;;;;-0.96;86.31;;;;;
2023/12/08 16:07:08;;;;;;;27.1;17.1;;;;;;;-0.96;85.95;;;;;
2023/12/08 16:17:08;;;;;;;27.1;17.1;;;;;;;-1;86.27;;;;;
2023/12/08 16:27:08;;;;;;;27.1;17.1;;;;;;;-1.15;86.32;;;;;
2023/12/08 16:38:08;;;;;;;28.8;16.1;;;;;;;-1.24;86.69;;;;;
2023/12/08 16:48:08;;;;;;;28.8;16.1;;;;;;;-1.2;87.14;;;;;
2023/12/08 16:58:08;;;;;;;30.3;18;;;;;;;-1.28;87.18;;;;;
2023/12/08 17:08:08;;;;;;;30.3;18;;;;;;;-1.26;87.14;;;;;
2023/12/08 17:18:08;;;;;;;30.3;18;;;;;;;-1.31;86.97;;;;;
2023/12/08 17:29:08;;;;;;;29.8;17.3;;;;;;;-1.49;87.11;;;;;
2023/12/08 17:40:11;;;;;;;29.8;17.3;;;;;;;-1.5;87.2;;;;;
2023/12/08 17:51:10;;;;;;;29.8;17.3;;;;;;;-1.52;87.27;;;;;
2023/12/08 18:02:08;;;;;;;29.6;15.3;;;;;;;-1.34;86.62;;;;;
2023/12/08 18:12:08;;;;;;;29.6;15.3;;;;;;;-1.27;85.83;;;;;
2023/12/08 18:22:08;;;;;;;29.6;15.3;;;;;;;-1.22;86.93;;;;;
2023/12/08 18:33:08;;;;;;;22.9;14.2;;;;;;;-1.03;86.44;;;;;
2023/12/08 18:44:08;;;;;;;22.9;14.2;;;;;;;-1.16;85.83;;;;;
2023/12/08 18:55:09;;;;;;;22.9;14.2;;;;;;;-1.04;85.58;;;;;
2023/12/08 19:05:09;;;;;;;28.4;15.9;;;;;;;-1.02;86.42;;;;;
2023/12/08 19:16:08;;;;;;;28.4;15.9;;;;;;;-1.55;86.35;;;;;
2023/12/08 19:26:08;;;;;;;28.4;15.9;;;;;;;-1.47;85.68;;;;;
2023/12/08 19:36:08;;;;;;;25.4;15.9;;;;;;;-1.3;86.01;;;;;
2023/12/08 19:47:08;;;;;;;25.4;15.9;;;;;;;-1;86.67;;;;;
2023/12/08 19:58:08;;;;;;;34.6;17.9;;;;;;;-0.89;86.77;;;;;
2023/12/08 20:08:08;;;;;;;34.6;17.9;;;;;;;-0.99;85.93;;;;;
2023/12/08 20:18:08;;;;;;;34.6;17.9;;;;;;;-1;86.11;;;;;
2023/12/08 20:29:08;;;;;;;28.7;16.7;;;;;;;-1.04;85.69;;;;;
2023/12/08 20:39:08;;;;;;;28.7;16.7;;;;;;;-1.38;85.75;;;;;
2023/12/08 20:50:09;;;;;;;28.7;16.7;;;;;;;-1.11;86.37;;;;;
2023/12/08 21:01:09;;;;;;;26;15.3;;;;;;;-1.18;86.42;;;;;
2023/12/08 21:11:08;;;;;;;26;15.3;;;;;;;-1.43;85.52;;;;;
2023/12/08 21:21:09;;;;;;;26;15.3;;;;;;;-1.63;86.46;;;;;
2023/12/08 21:32:08;;;;;;;36;18.1;;;;;;;-1.59;86.17;;;;;
2023/12/08 21:42:08;;;;;;;36;18.1;;;;;;;-1.55;86.22;;;;;
2023/12/08 21:52:08;;;;;;;36;18.1;;;;;;;-1.67;86.14;;;;;
2023/12/08 22:03:08;;;;;;;35.7;19;;;;;;;-1.66;86.95;;;;;
2023/12/08 22:13:09;;;;;;;35.7;19;;;;;;;-1.68;86.26;;;;;
2023/12/08 22:24:08;;;;;;;35.7;19;;;;;;;-1.84;87.1;;;;;
2023/12/08 22:34:09;;;;;;;34.5;17.1;;;;;;;-1.97;87.1;;;;;
2023/12/08 22:44:08;;;;;;;34.5;17.1;;;;;;;-2.17;86.94;;;;;
2023/12/08 22:55:08;;;;;;;34.5;17.1;;;;;;;-2.45;88.54;;;;;
2023/12/08 23:05:08;;;;;;;32.6;18.1;;;;;;;-2.22;87.95;;;;;
2023/12/08 23:16:08;;;;;;;32.6;18.1;;;;;;;-2.46;88;;;;;
2023/12/08 23:27:08;;;;;;;39;19.9;;;;;;;-2.37;88.09;;;;;
2023/12/08 23:38:08;;;;;;;39;19.9;;;;;;;-2.64;88.43;;;;;
2023/12/08 23:49:08;;;;;;;39;19.9;;;;;;;-2.32;88.16;;;;;
2023/12/08 23:59:08;;;;;;;33.2;18.2;;;;;;;-2.66;88.49;;;;;
